Time;durP1;ratioP1;P1;durP2;ratioP2;P2;SDS_P1;SDS_P2;PMS_P1;PMS_P2;Temp;Humidity;BMP_temperature;BMP_pressure;BME280_temperature;BME280_humidity;BME280_pressure;Samples;Min_cycle;Max_cycle;Signal;HPM_P1;HPM_P2
2021/12/29 01:23:12;;;;;;;;;;;;;;;;;;;;;
2021/12/29 01:32:07;;;;;;;3.73;0.90;;;;;;;5.75;100.00;94441.06;6124406;23;20555;-84
2021/12/29 02:21:21;;;;;;;;;;;;;;;;;;;;;
2021/12/29 07:17:51;;;;;;;1.33;0.57;;;;;;;5.60;100.00;94859.72;6124682;23;20729;-82
2021/12/29 07:20:16;;;;;;;1.10;0.60;;;;;;;5.64;100.00;94855.91;6100286;23;20187;-81
2021/12/29 07:22:42;;;;;;;1.30;0.60;;;;;;;5.71;100.00;94862.16;6098934;23;20203;-79
2021/12/29 07:25:07;;;;;;;3.80;1.23;;;;;;;5.60;100.00;94854.59;6100153;23;20140;-82
2021/12/29 07:27:33;;;;;;;3.40;1.50;;;;;;;5.61;100.00;94859.59;6124718;23;20164;-81
2021/12/29 07:29:58;;;;;;;2.17;0.97;;;;;;;5.65;100.00;94857.53;6100676;23;20161;-81
2021/12/29 07:32:23;;;;;;;3.47;1.40;;;;;;;5.63;100.00;94855.13;6099587;23;20155;-80
2021/12/29 07:34:49;;;;;;;5.40;1.53;;;;;;;5.66;100.00;94864.34;6125288;23;20672;-80
2021/12/29 07:37:14;;;;;;;4.23;2.27;;;;;;;5.68;100.00;94868.41;6100062;23;20179;-80
2021/12/29 07:39:40;;;;;;;2.70;1.30;;;;;;;5.69;100.00;94871.81;6098690;23;20223;-80
2021/12/29 07:42:05;;;;;;;2.87;0.77;;;;;;;5.58;100.00;94885.63;6099580;23;20159;-79
2021/12/29 07:44:31;;;;;;;5.10;1.40;;;;;;;5.62;100.00;94881.81;6126467;23;20160;-81
2021/12/29 07:46:58;;;;;;;2.97;1.07;;;;;;;5.64;100.00;94892.00;6099369;23;20179;-81
2021/12/29 07:49:24;;;;;;;4.20;0.90;;;;;;;5.62;100.00;94894.69;6123882;23;20155;-79
2021/12/29 07:51:50;;;;;;;3.30;0.70;;;;;;;5.65;100.00;94897.03;6125437;23;20194;-82
2021/12/29 07:54:15;;;;;;;2.40;1.03;;;;;;;5.71;100.00;94910.31;6124266;23;20210;-81
2021/12/29 07:56:41;;;;;;;4.50;1.10;;;;;;;5.67;100.00;94907.19;6123730;23;20175;-83
2021/12/29 07:59:06;;;;;;;5.90;1.40;;;;;;;5.69;100.00;94918.16;6124315;23;20155;-82
2021/12/29 08:01:32;;;;;;;3.50;1.43;;;;;;;5.79;100.00;94926.72;6124042;23;20175;-83
2021/12/29 08:03:57;;;;;;;3.03;1.30;;;;;;;5.71;100.00;94925.75;6100362;23;20163;-81
2021/12/29 08:58:41;;;;;;;;;;;;;;;;;;;;;
2021/12/29 09:01:06;;;;;;;4.50;1.10;;;;;;;6.09;100.00;94922.44;5660004;25;20601;-80
2021/12/29 09:03:31;;;;;;;5.57;1.57;;;;;;;6.10;100.00;94914.59;5660742;25;20210;-80
2021/12/29 09:05:57;;;;;;;5.73;1.40;;;;;;;6.15;100.00;94924.47;5660844;25;20290;-81
2021/12/29 09:08:23;;;;;;;6.27;1.83;;;;;;;6.25;99.82;94927.88;5661430;25;20178;-81
2021/12/29 09:10:48;;;;;;;7.70;3.93;;;;;;;6.22;100.00;94935.88;5661076;25;20214;-80
2021/12/29 09:13:16;;;;;;;7.17;3.33;;;;;;;6.33;99.67;94935.72;5660350;25;20754;-79
2021/12/29 09:15:41;;;;;;;6.17;2.00;;;;;;;6.44;99.10;94935.59;5660894;25;20195;-80
2021/12/29 09:18:07;;;;;;;7.17;2.70;;;;;;;6.51;98.74;94934.09;5670265;25;20641;-78
2021/12/29 09:20:33;;;;;;;7.40;3.70;;;;;;;6.63;98.00;94931.38;5685284;25;20649;-83
2021/12/29 09:23:04;;;;;;;10.80;5.53;;;;;;;6.75;97.57;94935.41;5703269;25;20178;-83
2021/12/29 09:25:30;;;;;;;7.53;3.77;;;;;;;6.74;97.99;94946.69;5695034;24;20244;-82
2021/12/29 09:27:56;;;;;;;7.30;2.57;;;;;;;6.80;97.69;94946.13;5817634;24;20548;-82
2021/12/29 09:30:24;;;;;;;29.30;3.47;;;;;;;6.76;97.13;94955.09;5865361;24;20189;-82
2021/12/29 09:32:49;;;;;;;7.17;2.47;;;;;;;6.77;96.36;94961.91;5930412;24;20573;-81
2021/12/29 09:35:16;;;;;;;7.43;2.40;;;;;;;6.84;96.45;94965.56;5929896;24;20203;-80
2021/12/29 09:37:42;;;;;;;27.77;4.40;;;;;;;6.90;95.83;94959.84;6079286;23;20161;-80
2021/12/29 09:40:09;;;;;;;10.73;3.70;;;;;;;6.94;95.19;94963.75;6072782;23;20181;-82
2021/12/29 09:42:34;;;;;;;28.67;3.57;;;;;;;6.87;95.06;94967.84;6072768;23;20137;-82
2021/12/29 09:44:59;;;;;;;10.00;2.33;;;;;;;6.99;95.36;94964.16;6072467;23;20165;-82
2021/12/29 09:47:25;;;;;;;5.97;1.80;;;;;;;6.99;94.74;94965.94;6072544;23;20199;-82
2021/12/29 09:49:50;;;;;;;7.80;2.63;;;;;;;7.00;94.74;94976.13;6072571;23;20156;-81
2021/12/29 09:52:16;;;;;;;9.73;4.27;;;;;;;6.96;94.67;94985.06;6072682;23;20167;-83
2021/12/29 09:54:41;;;;;;;15.97;6.07;;;;;;;6.93;94.45;94990.53;6073006;23;20184;-83
2021/12/29 09:57:06;;;;;;;13.40;5.63;;;;;;;7.02;94.63;94997.44;6096654;23;20176;-82
2021/12/29 09:59:32;;;;;;;7.90;3.87;;;;;;;7.05;94.53;95007.47;6072070;23;20493;-83
2021/12/29 10:01:58;;;;;;;5.03;2.57;;;;;;;7.05;94.44;95010.06;6088547;23;20482;-83
2021/12/29 10:04:24;;;;;;;3.43;1.63;;;;;;;6.90;94.81;95003.72;6072808;23;20244;-82
2021/12/29 10:06:49;;;;;;;5.87;1.90;;;;;;;7.04;95.29;95005.03;6072457;23;20203;-83
2021/12/29 10:09:16;;;;;;;3.63;1.60;;;;;;;6.94;95.41;94992.16;6072673;23;20188;-82
2021/12/29 10:11:42;;;;;;;1.53;1.40;;;;;;;7.01;95.19;94980.31;6048302;23;20183;-82
2021/12/29 10:14:11;;;;;;;9.83;5.93;;;;;;;6.99;95.56;94974.50;6072715;23;20650;-81
2021/12/29 10:16:38;;;;;;;5.10;2.93;;;;;;;7.10;95.02;94960.59;6096714;23;20180;-83
2021/12/29 10:19:09;;;;;;;4.20;1.30;;;;;;;7.09;94.54;94970.13;6096420;23;20157;-82
2021/12/29 10:21:36;;;;;;;4.80;1.20;;;;;;;7.15;94.56;94963.56;6072009;23;20168;-82
2021/12/29 10:24:03;;;;;;;3.17;1.10;;;;;;;7.20;94.40;94966.53;6072193;23;20160;-83
2021/12/29 10:26:31;;;;;;;5.43;1.30;;;;;;;7.21;94.24;94952.69;6072081;23;20518;-83
2021/12/29 10:29:02;;;;;;;2.53;1.00;;;;;;;7.34;94.50;94952.38;6072456;23;20169;-82
2021/12/29 10:31:30;;;;;;;2.50;0.73;;;;;;;7.26;94.17;94957.44;6072181;23;20145;-82
2021/12/29 10:33:58;;;;;;;1.57;0.70;;;;;;;7.17;94.63;94955.69;6048412;23;20156;-82
2021/12/29 10:36:29;;;;;;;3.33;1.20;;;;;;;7.24;94.75;94954.16;6072358;23;20180;-83
2021/12/29 10:39:02;;;;;;;2.00;1.53;;;;;;;7.31;94.81;94952.63;6072071;23;20192;-82
2021/12/29 10:41:29;;;;;;;3.13;1.63;;;;;;;7.30;94.73;94956.19;6096250;23;20590;-82
2021/12/29 10:44:00;;;;;;;3.47;2.17;;;;;;;7.25;94.81;94963.56;6072246;23;20247;-81
2021/12/29 10:46:26;;;;;;;3.30;1.97;;;;;;;7.27;95.31;94961.63;6072246;23;20203;-82
2021/12/29 10:48:54;;;;;;;2.93;2.20;;;;;;;7.21;95.52;94946.69;6072145;23;20160;-82
2021/12/29 10:51:25;;;;;;;5.90;1.70;;;;;;;7.30;95.68;94956.19;6070968;23;20160;-82
2021/12/29 10:53:51;;;;;;;4.83;1.73;;;;;;;7.19;95.66;94956.38;6071724;23;20164;-82
2021/12/29 10:56:24;;;;;;;2.80;2.07;;;;;;;7.26;95.62;94953.06;6071645;23;20212;-82
2021/12/29 10:58:50;;;;;;;6.23;2.20;;;;;;;7.24;95.94;94962.72;6046785;23;20619;-83
2021/12/29 11:01:16;;;;;;;3.87;2.17;;;;;;;7.18;95.94;94955.56;6078599;23;20259;-82
2021/12/29 11:03:47;;;;;;;2.57;1.47;;;;;;;7.25;96.22;94959.19;6095524;23;20188;-82
2021/12/29 11:06:15;;;;;;;1.30;1.07;;;;;;;7.16;96.39;94960.06;6095281;23;20188;-82
2021/12/29 11:09:00;;;;;;;2.37;0.90;;;;;;;7.09;96.64;94954.63;6120320;23;20176;-82
2021/12/29 11:11:40;;;;;;;1.90;1.30;;;;;;;7.08;96.87;94957.34;6119513;23;20831;-83
2021/12/29 11:14:07;;;;;;;1.43;0.80;;;;;;;7.09;96.78;94951.22;6120216;23;20136;-82
2021/12/29 11:16:32;;;;;;;1.93;1.10;;;;;;;7.00;97.25;94950.31;6095589;23;20180;-82
2021/12/29 11:18:57;;;;;;;3.43;1.80;;;;;;;6.96;97.21;94953.28;6095040;23;20614;-82
2021/12/29 11:21:28;;;;;;;2.33;1.27;;;;;;;7.07;96.91;94945.41;6094108;23;20195;-82
2021/12/29 11:23:54;;;;;;;1.73;1.30;;;;;;;7.03;97.13;94939.69;6119463;23;20149;-82
2021/12/29 11:26:32;;;;;;;3.67;1.10;;;;;;;7.08;97.39;94942.66;6123437;23;20199;-81
2021/12/29 11:29:12;;;;;;;2.10;0.97;;;;;;;7.18;97.11;94940.06;6094741;23;20187;-82
2021/12/29 11:31:46;;;;;;;5.50;1.33;;;;;;;7.13;96.97;94944.81;6118324;23;20141;-82
2021/12/29 11:34:27;;;;;;;4.70;1.53;;;;;;;6.94;97.71;94935.38;6119316;23;20176;-81
2021/12/29 11:37:07;;;;;;;4.53;1.27;;;;;;;7.00;97.56;94936.59;6119076;23;20184;-82
2021/12/29 11:39:35;;;;;;;5.00;1.57;;;;;;;6.96;98.06;94941.19;6118988;23;20156;-81
2021/12/29 11:42:01;;;;;;;6.57;3.07;;;;;;;6.98;98.24;94930.72;6093567;23;20179;-81
2021/12/29 11:44:26;;;;;;;5.30;1.70;;;;;;;7.01;98.44;94933.84;6094349;23;20228;-80
2021/12/29 11:46:52;;;;;;;7.40;1.40;;;;;;;7.00;98.28;94944.34;6070124;23;20658;-81
2021/12/29 11:49:18;;;;;;;6.67;1.53;;;;;;;6.98;98.69;94947.06;6089184;23;20156;-81
2021/12/29 11:52:05;;;;;;;5.60;2.07;;;;;;;6.99;98.75;94953.84;6089744;23;20144;-81
2021/12/29 11:54:49;;;;;;;4.37;2.10;;;;;;;6.96;99.16;94950.72;6115398;23;20172;-80
2021/12/29 11:57:18;;;;;;;5.83;1.87;;;;;;;6.92;99.23;94944.22;6115148;23;20572;-80
2021/12/29 11:59:44;;;;;;;7.03;1.43;;;;;;;6.90;99.26;94946.94;6114926;23;20697;-80
2021/12/29 12:02:09;;;;;;;6.77;2.03;;;;;;;6.95;99.92;94937.00;6090677;23;20176;-80
2021/12/29 12:04:36;;;;;;;4.37;2.10;;;;;;;7.11;99.02;94926.06;6091251;23;20495;-80
2021/12/29 12:07:08;;;;;;;8.47;1.90;;;;;;;7.28;98.67;94909.03;6115718;23;20706;-80
2021/12/29 12:09:50;;;;;;;6.57;1.40;;;;;;;7.43;97.85;94904.22;6091124;23;20156;-81
2021/12/29 12:12:16;;;;;;;4.23;1.40;;;;;;;7.34;95.83;94906.69;6091334;23;20223;-81
2021/12/29 12:14:51;;;;;;;8.00;1.60;;;;;;;7.51;96.43;94902.53;6091304;23;20182;-81
2021/12/29 12:17:20;;;;;;;6.47;1.60;;;;;;;7.58;95.77;94908.72;6115625;23;20207;-80
2021/12/29 12:19:46;;;;;;;4.10;1.47;;;;;;;7.41;95.93;94901.75;6093207;23;20156;-81
2021/12/29 12:22:18;;;;;;;8.33;2.13;;;;;;;7.39;94.84;94901.88;6116567;23;20200;-81
2021/12/29 12:24:52;;;;;;;7.07;1.60;;;;;;;7.46;95.19;94917.63;6118533;23;20161;-80
2021/12/29 12:27:44;;;;;;;4.23;1.73;;;;;;;7.51;94.69;94923.19;6096144;23;20187;-80
2021/12/29 12:30:16;;;;;;;3.27;1.47;;;;;;;7.46;95.14;94927.97;6068890;23;20164;-80
2021/12/29 12:32:48;;;;;;;5.67;1.50;;;;;;;7.71;94.69;94923.09;6101535;23;20153;-80
2021/12/29 12:35:28;;;;;;;33.47;3.83;;;;;;;7.73;93.99;94932.31;6140662;23;20153;-81
2021/12/29 12:37:53;;;;;;;9.50;1.90;;;;;;;7.64;93.84;94941.75;6112073;23;20159;-81
2021/12/29 12:40:27;;;;;;;4.80;1.40;;;;;;;7.73;94.32;94947.00;6094794;23;20563;-82
2021/12/29 12:43:12;;;;;;;5.23;1.20;;;;;;;7.78;94.28;94944.81;6118807;23;20236;-81
2021/12/29 12:45:50;;;;;;;5.20;1.67;;;;;;;7.57;93.21;94945.84;6095173;23;20207;-81
2021/12/29 12:48:33;;;;;;;1.93;1.27;;;;;;;7.55;93.52;94947.78;6118490;23;20144;-81
2021/12/29 12:51:12;;;;;;;6.97;1.10;;;;;;;7.77;93.48;94953.50;6095854;23;20152;-81
2021/12/29 12:53:37;;;;;;;4.87;1.20;;;;;;;7.71;93.58;94943.75;6121626;23;20288;-81
2021/12/29 12:56:07;;;;;;;3.33;1.23;;;;;;;7.84;93.74;94942.44;6096400;23;20223;-81
2021/12/29 12:58:39;;;;;;;6.33;1.80;;;;;;;7.85;93.84;94936.31;6096742;23;20499;-80
2021/12/29 13:01:08;;;;;;;5.67;1.80;;;;;;;7.89;93.58;94931.69;6119526;23;20188;-81
2021/12/29 13:03:34;;;;;;;5.37;2.87;;;;;;;7.71;94.47;94930.84;6095734;23;20156;-81
2021/12/29 13:06:01;;;;;;;6.73;2.00;;;;;;;7.70;94.90;94936.97;6097034;23;20177;-81
2021/12/29 13:08:42;;;;;;;2.87;1.37;;;;;;;7.55;95.29;94945.19;6096262;23;20196;-80
2021/12/29 13:11:16;;;;;;;2.27;1.10;;;;;;;7.54;96.08;94938.41;6095140;23;20532;-82
2021/12/29 13:13:45;;;;;;;4.93;1.60;;;;;;;7.60;96.18;94953.34;6095109;23;20160;-79
2021/12/29 13:16:13;;;;;;;3.43;1.67;;;;;;;7.67;96.10;94956.13;6094160;23;20316;-80
2021/12/29 13:18:39;;;;;;;10.87;5.33;;;;;;;7.62;96.38;94951.41;6094706;23;20275;-81
2021/12/29 13:21:13;;;;;;;5.43;2.97;;;;;;;7.56;97.12;94951.97;6121275;23;20204;-81
2021/12/29 13:23:39;;;;;;;3.33;1.90;;;;;;;7.52;97.39;94937.75;6095579;23;20160;-81
2021/12/29 13:26:06;;;;;;;5.20;2.50;;;;;;;7.53;97.41;94933.38;6095056;23;20233;-77
2021/12/29 13:28:33;;;;;;;5.30;2.03;;;;;;;7.51;97.96;94925.78;6119547;23;20640;-80
2021/12/29 13:31:06;;;;;;;5.40;2.50;;;;;;;7.60;97.63;94930.09;6119297;23;20153;-81
2021/12/29 13:33:35;;;;;;;4.13;2.10;;;;;;;7.54;98.10;94937.59;6097571;23;20151;-80
2021/12/29 13:36:02;;;;;;;4.97;1.90;;;;;;;7.56;97.90;94930.50;6095718;23;20653;-82
2021/12/29 13:38:31;;;;;;;4.50;2.63;;;;;;;7.51;98.06;94933.53;6120543;23;20157;-82
2021/12/29 13:41:00;;;;;;;6.57;2.30;;;;;;;7.53;98.03;94951.47;6119691;23;20176;-82
2021/12/29 13:43:31;;;;;;;4.93;2.47;;;;;;;7.50;98.79;94939.63;6118472;23;20231;-82
2021/12/29 13:46:10;;;;;;;4.73;2.10;;;;;;;7.46;99.22;94940.88;6120722;23;20207;-82
2021/12/29 13:48:36;;;;;;;5.67;2.60;;;;;;;7.46;98.88;94958.97;6120295;23;20152;-81
2021/12/29 13:51:13;;;;;;;17.60;12.87;;;;;;;7.38;99.13;94953.69;6095370;23;20163;-80
2021/12/29 13:53:46;;;;;;;8.37;3.33;;;;;;;7.34;99.61;94948.03;6120080;23;20653;-81
2021/12/29 13:56:14;;;;;;;7.35;3.90;;;;;;;7.32;100.00;94951.69;6093980;23;20392;-81
2021/12/29 13:58:40;;;;;;;5.15;3.03;;;;;;;7.29;99.94;94954.56;6118501;23;20394;-81
2021/12/29 14:01:06;;;;;;;6.07;3.37;;;;;;;7.28;99.89;94952.94;6118562;23;20275;-81
2021/12/29 14:03:33;;;;;;;6.43;3.30;;;;;;;7.29;100.00;94933.91;6093164;23;20788;-82
2021/12/29 14:06:04;;;;;;;9.13;4.63;;;;;;;7.33;100.00;94936.06;6119663;23;20207;-81
2021/12/29 14:08:34;;;;;;;8.13;6.80;;;;;;;7.33;100.00;94940.38;6095612;23;20575;-81
2021/12/29 14:11:01;;;;;;;8.05;4.93;;;;;;;7.36;100.00;94942.72;6094456;23;20384;-81
2021/12/29 14:13:30;;;;;;;5.27;3.20;;;;;;;7.37;100.00;94939.97;6118644;23;20152;-81
2021/12/29 14:16:04;;;;;;;10.83;7.07;;;;;;;7.39;100.00;94940.63;6094556;23;20208;-81
2021/12/29 14:18:30;;;;;;;12.90;10.23;;;;;;;7.38;100.00;94949.34;6118981;23;20152;-80
2021/12/29 14:20:56;;;;;;;11.40;7.60;;;;;;;7.45;100.00;94949.59;6118479;23;20436;-81
2021/12/29 14:23:26;;;;;;;15.63;12.53;;;;;;;7.39;100.00;94957.91;6094066;23;20560;-81
2021/12/29 14:25:52;;;;;;;13.73;8.93;;;;;;;7.36;100.00;94961.59;6095308;23;20188;-80
2021/12/29 14:28:20;;;;;;;14.38;8.50;;;;;;;7.35;100.00;94964.31;6093543;23;20403;-80
2021/12/29 14:31:04;;;;;;;19.17;14.80;;;;;;;7.41;100.00;94960.34;6119015;23;20156;-80
2021/12/29 14:33:41;;;;;;;11.93;8.87;;;;;;;7.29;100.00;94963.13;6094177;23;20677;-85
2021/12/29 14:36:11;;;;;;;9.07;6.40;;;;;;;7.38;100.00;94964.84;6119521;23;20184;-80
2021/12/29 14:38:38;;;;;;;8.97;5.83;;;;;;;7.29;100.00;94975.22;6119750;23;20631;-81
2021/12/29 14:41:06;;;;;;;7.00;4.35;;;;;;;7.30;100.00;94961.34;6070662;23;20404;-80
2021/12/29 14:43:31;;;;;;;5.27;4.03;;;;;;;7.17;100.00;94961.69;6117590;23;20506;-81
2021/12/29 14:46:06;;;;;;;5.03;3.70;;;;;;;7.16;100.00;94970.38;6094676;23;20191;-81
2021/12/29 14:48:32;;;;;;;6.97;3.53;;;;;;;7.12;100.00;94974.19;6118657;23;20215;-81
2021/12/29 14:50:58;;;;;;;7.43;3.63;;;;;;;7.08;100.00;94970.25;6070663;23;20152;-80
2021/12/29 14:53:26;;;;;;;7.73;4.43;;;;;;;7.01;100.00;94970.00;6094077;23;20156;-80
2021/12/29 14:55:53;;;;;;;6.83;5.37;;;;;;;7.05;100.00;94958.44;6094362;23;20187;-81
2021/12/29 14:58:27;;;;;;;10.57;7.13;;;;;;;6.99;100.00;94966.75;6094331;23;20168;-80
2021/12/29 15:01:04;;;;;;;9.83;6.77;;;;;;;6.96;100.00;94953.28;6093987;23;20248;-81
2021/12/29 15:03:29;;;;;;;7.43;4.50;;;;;;;6.99;100.00;94948.69;6093707;23;20141;-81
2021/12/29 15:05:54;;;;;;;7.67;4.90;;;;;;;6.94;100.00;94948.28;6094458;23;20235;-81
2021/12/29 15:08:23;;;;;;;8.40;3.90;;;;;;;6.96;100.00;94946.34;6093966;23;20161;-80
2021/12/29 15:10:55;;;;;;;7.23;4.13;;;;;;;7.01;100.00;94944.19;6093686;23;20319;-82
2021/12/29 15:13:24;;;;;;;5.77;3.40;;;;;;;6.99;100.00;94955.63;6094092;23;20156;-79
2021/12/29 15:15:51;;;;;;;4.93;3.50;;;;;;;6.86;100.00;94961.06;6094109;23;20394;-81
2021/12/29 15:18:20;;;;;;;6.97;3.97;;;;;;;6.83;100.00;94971.66;6094263;23;20204;-80
2021/12/29 15:20:48;;;;;;;7.67;2.67;;;;;;;6.74;100.00;94975.09;6116610;23;20183;-81
2021/12/29 15:23:15;;;;;;;6.20;2.10;;;;;;;6.71;100.00;94965.84;6118407;23;20191;-81
2021/12/29 15:25:42;;;;;;;3.80;2.03;;;;;;;6.71;100.00;94960.66;6117926;23;20300;-82
2021/12/29 15:28:10;;;;;;;5.28;2.90;;;;;;;6.91;100.00;94956.31;6119088;23;20421;-84
2021/12/29 15:30:39;;;;;;;5.57;3.63;;;;;;;6.83;100.00;94948.44;6094034;23;20432;-81
2021/12/29 15:33:05;;;;;;;6.40;3.55;;;;;;;6.76;100.00;94942.22;6092407;23;20847;-81
2021/12/29 15:35:31;;;;;;;4.23;2.70;;;;;;;6.69;100.00;94960.00;6118269;23;20183;-81
2021/12/29 15:37:57;;;;;;;6.10;3.13;;;;;;;6.72;100.00;94956.34;6118581;23;20392;-85
2021/12/29 15:40:24;;;;;;;2.80;1.80;;;;;;;6.62;100.00;94964.06;6095257;23;20428;-81
2021/12/29 15:42:49;;;;;;;3.90;1.93;;;;;;;6.63;100.00;94958.00;6117566;23;20164;-81
2021/12/29 15:45:17;;;;;;;2.47;1.43;;;;;;;6.56;100.00;94951.75;6093834;23;20254;-81
2021/12/29 15:47:43;;;;;;;3.93;2.63;;;;;;;6.54;100.00;94951.06;6139237;23;20153;-82
2021/12/29 15:50:11;;;;;;;4.13;2.30;;;;;;;6.63;100.00;94965.72;6141908;23;20161;-84
2021/12/29 15:52:37;;;;;;;1.80;1.10;;;;;;;6.53;100.00;94962.31;6129142;23;20160;-85
2021/12/29 15:55:05;;;;;;;3.33;2.00;;;;;;;6.64;100.00;94953.66;6096782;23;20861;-84
2021/12/29 15:57:30;;;;;;;4.37;1.80;;;;;;;6.60;100.00;94970.34;6096915;23;20419;-84
2021/12/29 15:59:56;;;;;;;2.40;1.90;;;;;;;6.57;100.00;94963.69;6096997;23;20180;-82
2021/12/29 16:02:21;;;;;;;3.47;2.30;;;;;;;6.53;100.00;94957.97;6098064;23;20394;-82
2021/12/29 16:04:48;;;;;;;4.43;2.57;;;;;;;6.54;100.00;94948.50;6125853;23;20867;-85
2021/12/29 16:07:14;;;;;;;4.32;2.72;;;;;;;6.49;100.00;94942.94;6077091;23;20391;-85
2021/12/29 16:09:39;;;;;;;3.03;2.53;;;;;;;6.51;100.00;94941.81;6100601;23;20672;-85
2021/12/29 16:12:05;;;;;;;6.37;4.33;;;;;;;6.42;100.00;94931.53;6124511;23;20452;-85
2021/12/29 16:14:30;;;;;;;3.80;2.63;;;;;;;6.43;100.00;94918.47;6125191;23;20395;-84
2021/12/29 16:16:56;;;;;;;5.80;3.70;;;;;;;6.46;100.00;94920.81;6099689;23;20425;-83
2021/12/29 16:19:27;;;;;;;3.67;2.73;;;;;;;6.54;100.00;94902.06;6123707;23;20386;-84
2021/12/29 16:21:52;;;;;;;4.20;2.65;;;;;;;6.59;100.00;94905.03;6098653;23;20405;-84
2021/12/29 16:24:17;;;;;;;5.20;3.10;;;;;;;6.66;100.00;94920.78;6123410;23;20425;-84
2021/12/29 16:26:43;;;;;;;8.33;3.60;;;;;;;6.53;100.00;94929.59;6122475;23;20461;-83
2021/12/29 16:29:08;;;;;;;4.33;2.87;;;;;;;6.52;100.00;94922.81;6124341;23;20626;-84
2021/12/29 16:31:34;;;;;;;4.30;2.93;;;;;;;6.59;100.00;94906.78;6122775;23;20406;-84
2021/12/29 16:34:00;;;;;;;5.50;3.87;;;;;;;6.64;100.00;94912.38;6097998;23;20430;-84
2021/12/29 16:36:27;;;;;;;3.53;3.17;;;;;;;6.61;100.00;94890.22;6122170;23;20725;-85
2021/12/29 16:38:52;;;;;;;2.80;2.00;;;;;;;6.57;100.00;94885.50;6123682;23;20390;-84
2021/12/29 16:41:18;;;;;;;2.27;1.80;;;;;;;6.61;100.00;94887.63;6123350;23;20190;-84
2021/12/29 16:43:43;;;;;;;2.30;1.90;;;;;;;6.59;100.00;94896.47;6123804;23;20163;-83
2021/12/29 16:46:08;;;;;;;2.40;2.20;;;;;;;6.69;100.00;94894.69;6097841;23;20443;-85
2021/12/29 16:48:34;;;;;;;2.57;2.33;;;;;;;6.73;100.00;94891.69;6121763;23;20394;-84
2021/12/29 16:50:59;;;;;;;1.63;1.50;;;;;;;6.70;100.00;94907.44;6123722;23;20599;-83
2021/12/29 16:53:25;;;;;;;1.73;1.63;;;;;;;6.73;100.00;94902.03;6123372;23;20155;-84
2021/12/29 16:55:50;;;;;;;3.07;2.00;;;;;;;6.75;100.00;94904.47;6098070;23;20634;-85
2021/12/29 16:58:16;;;;;;;2.50;1.83;;;;;;;6.59;100.00;94909.38;6122878;23;20159;-83
2021/12/29 17:00:42;;;;;;;1.60;1.50;;;;;;;6.63;100.00;94900.41;6093516;23;20634;-83
2021/12/29 17:03:08;;;;;;;1.87;1.47;;;;;;;6.71;100.00;94905.66;6092519;23;20235;-84
2021/12/29 17:05:34;;;;;;;3.00;2.70;;;;;;;6.65;100.00;94908.84;6069739;23;20187;-84
2021/12/29 17:07:59;;;;;;;7.67;5.13;;;;;;;6.66;100.00;94923.34;6045569;23;20160;-83
2021/12/29 17:10:24;;;;;;;2.97;2.67;;;;;;;6.62;100.00;94932.31;6093736;23;20188;-83
2021/12/29 17:12:50;;;;;;;2.80;2.60;;;;;;;6.64;100.00;94925.25;6092746;23;20161;-82
2021/12/29 17:15:15;;;;;;;5.20;4.20;;;;;;;6.64;100.00;94915.75;6067910;23;20236;-83
2021/12/29 17:17:42;;;;;;;2.80;2.37;;;;;;;6.65;100.00;94919.97;6069460;23;20165;-82
2021/12/29 17:20:07;;;;;;;3.43;2.30;;;;;;;6.66;100.00;94936.25;6045618;23;20192;-82
2021/12/29 17:22:33;;;;;;;3.13;2.33;;;;;;;6.62;100.00;94934.88;6045204;23;20554;-82
2021/12/29 17:24:59;;;;;;;4.27;3.03;;;;;;;6.64;100.00;94951.06;6070613;23;20164;-84
2021/12/29 17:27:24;;;;;;;5.40;2.53;;;;;;;6.62;100.00;94955.53;6070022;23;20517;-83
2021/12/29 17:29:50;;;;;;;4.93;4.07;;;;;;;6.63;100.00;94967.50;6069764;23;20224;-82
2021/12/29 17:32:15;;;;;;;6.67;4.97;;;;;;;6.66;100.00;94968.03;6092580;23;20218;-83
2021/12/29 17:34:41;;;;;;;4.87;3.80;;;;;;;6.63;100.00;94959.75;6044240;23;20180;-82
2021/12/29 17:37:07;;;;;;;3.80;3.40;;;;;;;6.62;100.00;94964.06;6069765;23;20173;-83
2021/12/29 17:39:33;;;;;;;2.90;2.70;;;;;;;6.69;100.00;94951.44;6094826;23;20159;-83
2021/12/29 17:41:58;;;;;;;4.03;3.00;;;;;;;6.73;100.00;94932.97;6070488;23;20188;-82
2021/12/29 17:44:24;;;;;;;4.43;2.67;;;;;;;6.67;100.00;94927.56;6095155;23;20239;-82
2021/12/29 17:46:51;;;;;;;2.73;2.47;;;;;;;6.67;100.00;94946.44;6070930;23;20245;-83
2021/12/29 17:49:16;;;;;;;2.93;2.20;;;;;;;6.64;100.00;94943.31;6071173;23;20267;-84
2021/12/29 17:51:41;;;;;;;2.83;2.27;;;;;;;6.71;100.00;94944.38;6070650;23;20603;-83
2021/12/29 17:54:07;;;;;;;2.63;2.43;;;;;;;6.72;100.00;94935.72;6095040;23;20191;-83
2021/12/29 17:56:32;;;;;;;2.37;2.17;;;;;;;6.67;100.00;94943.03;6094930;23;20239;-83
2021/12/29 17:58:58;;;;;;;2.53;2.33;;;;;;;6.71;100.00;94934.88;6070774;23;20165;-83
2021/12/29 18:01:24;;;;;;;2.97;2.67;;;;;;;6.76;100.00;94942.22;6094271;23;20199;-84
2021/12/29 18:03:50;;;;;;;5.00;4.60;;;;;;;6.73;100.00;94939.91;6072070;23;20192;-82
2021/12/29 18:06:15;;;;;;;4.70;4.30;;;;;;;6.73;100.00;94940.72;6071981;23;20200;-83
2021/12/29 18:08:41;;;;;;;3.70;3.33;;;;;;;6.78;100.00;94940.28;6070559;23;20607;-82
2021/12/29 18:11:07;;;;;;;7.00;6.30;;;;;;;6.81;100.00;94950.34;6071070;23;20207;-82
2021/12/29 18:13:33;;;;;;;4.43;3.40;;;;;;;6.94;100.00;94942.31;6071406;23;20246;-84
2021/12/29 18:15:59;;;;;;;1.97;1.83;;;;;;;7.07;100.00;94942.81;6047728;23;20204;-85
2021/12/29 18:18:24;;;;;;;2.30;1.93;;;;;;;7.14;100.00;94935.31;6070750;23;20162;-83
2021/12/29 18:20:50;;;;;;;2.10;1.90;;;;;;;7.32;100.00;94938.75;6070805;23;20709;-83
2021/12/29 18:23:15;;;;;;;4.67;4.10;;;;;;;7.42;100.00;94930.97;6046800;23;20165;-84
2021/12/29 18:25:41;;;;;;;4.90;3.43;;;;;;;7.58;100.00;94924.22;6070873;23;20181;-83
2021/12/29 18:28:08;;;;;;;4.30;2.83;;;;;;;7.80;100.00;94925.59;6070778;23;20209;-83
2021/12/29 18:30:33;;;;;;;2.43;2.20;;;;;;;8.01;100.00;94933.09;6094354;23;20157;-82
2021/12/29 18:32:59;;;;;;;1.80;1.50;;;;;;;8.21;100.00;94924.22;6069569;23;20303;-82
2021/12/29 18:35:25;;;;;;;2.60;2.40;;;;;;;8.32;100.00;94933.53;6070406;23;20153;-83
2021/12/29 18:37:50;;;;;;;5.23;3.60;;;;;;;8.41;100.00;94932.69;6070633;23;20170;-84
2021/12/29 18:40:17;;;;;;;2.43;2.00;;;;;;;8.46;100.00;94932.22;6047244;23;20243;-83
2021/12/29 18:42:43;;;;;;;2.70;1.90;;;;;;;8.62;100.00;94934.94;6070759;23;20607;-83
2021/12/29 18:45:09;;;;;;;8.07;4.73;;;;;;;8.64;100.00;94922.66;6070771;23;20153;-83
2021/12/29 18:47:35;;;;;;;5.17;3.47;;;;;;;8.75;100.00;94926.78;6094754;23;20276;-83
2021/12/29 18:50:02;;;;;;;3.43;1.23;;;;;;;9.00;100.00;94938.09;6070778;23;20614;-83
2021/12/29 18:52:27;;;;;;;3.23;2.47;;;;;;;9.01;100.00;94931.94;6047767;23;20157;-83
2021/12/29 18:54:52;;;;;;;3.93;2.57;;;;;;;9.14;100.00;94939.31;6071144;23;20160;-84
2021/12/29 18:57:18;;;;;;;3.73;2.70;;;;;;;9.17;100.00;94936.41;6071013;23;20195;-84
2021/12/29 18:59:43;;;;;;;2.67;2.10;;;;;;;9.27;100.00;94940.50;6068059;23;20165;-84
2021/12/29 19:02:09;;;;;;;3.47;1.30;;;;;;;9.32;100.00;94938.28;6067432;23;20223;-83
2021/12/29 19:04:34;;;;;;;1.80;1.70;;;;;;;9.38;100.00;94956.78;6044012;23;20165;-83
2021/12/29 19:06:59;;;;;;;0.60;0.60;;;;;;;9.48;100.00;94957.47;6099618;23;20173;-83
2021/12/29 19:09:25;;;;;;;1.07;0.97;;;;;;;9.54;100.00;94968.06;6072304;23;20173;-84
2021/12/29 19:11:52;;;;;;;0.43;0.43;;;;;;;9.62;100.00;94959.47;6119118;23;20268;-84
2021/12/29 19:14:19;;;;;;;0.47;0.47;;;;;;;9.64;100.00;94953.19;6050873;23;20160;-84
2021/12/29 19:16:45;;;;;;;1.40;0.70;;;;;;;9.71;100.00;94971.50;6045957;23;20180;-84
2021/12/29 19:19:11;;;;;;;1.63;1.30;;;;;;;9.76;100.00;94966.66;6070513;23;20175;-83
2021/12/29 19:21:36;;;;;;;1.77;1.00;;;;;;;9.79;100.00;94955.16;6071939;23;20181;-84
2021/12/29 19:24:02;;;;;;;1.00;0.80;;;;;;;9.87;100.00;94945.63;6070238;23;20160;-82
2021/12/29 19:26:27;;;;;;;1.17;0.90;;;;;;;9.84;100.00;94958.91;6070876;23;20209;-83
2021/12/29 19:28:53;;;;;;;1.20;0.87;;;;;;;9.86;100.00;94956.16;6093969;23;20148;-83
2021/12/29 19:31:19;;;;;;;0.70;0.70;;;;;;;9.87;100.00;94958.59;6069794;23;20210;-83
2021/12/29 19:33:45;;;;;;;1.60;0.50;;;;;;;9.86;100.00;94948.38;6094190;23;20152;-82
2021/12/29 19:36:11;;;;;;;1.13;0.93;;;;;;;9.88;100.00;94949.84;6069776;23;20185;-82
2021/12/29 19:38:36;;;;;;;0.73;0.50;;;;;;;9.90;100.00;94952.31;6070394;23;20624;-83
2021/12/29 19:41:07;;;;;;;2.60;1.20;;;;;;;9.90;100.00;94958.28;6093562;23;20177;-82
2021/12/29 19:43:42;;;;;;;1.90;0.60;;;;;;;9.83;100.00;94962.47;6070600;23;20617;-83